Abbott Park, IL

4:44 PM CDT on October 31, 2014 (GMT -0500)
Prairie Ridge Farm | Change Station
CLOSE
Current Station
Personal Weather Station
Location: Green Oaks, IL
Elevation: 698 ft
Nearby Weather Stations
Active Advisory: Wind Advisory Active Notice: Public Information Statement

Elev 698 ft 42.32 °N, 87.92 °W | Updated 5 seconds ago

Overcast
Overcast
38.3 °F
Feels Like 30 °F
N
14.1
Wind Variable Wind from ENE
Gusts 15.0 mph

Today
High -- | Low -- °F
--% Chance of Precip.
Yesterday
High -- | Low -- °F
Precip. -- in
7:23 AM 5:46 PM
First Quarter, 59% visible
Pressure 30.27 in
Visibility 10.0 miles
Clouds Overcast 4300 ft
Windchill 30 °F
Dew Point 24 °F
Humidity 56%
Rainfall 0.02 in
Snow Depth Not available.
UV 0 out of 12
Pollen .60 out of 12
Air Quality Not available.
Flu Activity Not available.
METAR KUGN 312055Z 34018G30KT 10SM OVC043 03/M06 A3024 RMK AO2 PK WND 34035/2008 RAB25E34 SLP248 P0000 60000 T00281061 51024

More Conditions Fewer Conditions

Pressure 30.27 in
Visibility 10.0 miles
Clouds Overcast 4300 ft
Windchill 30 °F
Dew Point 24 °F
Humidity 56%
Rainfall 0.02 in
Snow Depth Not available.
UV 0 out of 12
Pollen .60 out of 12
Air Quality Not available.
Flu Activity Not available.
METAR KUGN 312055Z 34018G30KT 10SM OVC043 03/M06 A3024 RMK AO2 PK WND 34035/2008 RAB25E34 SLP248 P0000 60000 T00281061 51024

More Conditions Fewer Conditions

10-Day Weather Forecast

Almanac

Astronomy

Oct. 31, 2014 Rise Set
Actual Time
Civil Twilight
Nautical Twilight
Astronomical Twilight
Moon
Length of Visible Light
Length of Day
Tomorrow will be .
, % of the Moon is Illuminated

Today's Extremes

State Highs State Lows

Community

WunderPhotos

Upload Photos

1,766,740 photos uploaded!

WunderBlogs® & News

Nearby

Air Quality

  Air Quality AQ Index Pollutant
Not available.

Snow Depth

Station Depth Elevation

Earthquake Activity

City Distance Mag. Time & Date
Minimum magnitude displayed is 2.5.

Coastal Water Temperatures

Place Temperature

Nearby Weather Stations